Flight Track Log - Related Links

Times and Time Zones

All times are in EDT time to prevent confusion due to time zone crossing. See the EJA941 flight status page for this flight to view local times or setup timezone preferences in your user account.

Time Position Orientation Groundspeed Altitude Reporting Facility
EDT Latitude Longitude Course Direction KTS MPH feet Rate Location/Type
Mon 09:32:33 AM 35.3808 -79.2350 33° Northeast 301 346 6,400  Level Washington Center
Mon 09:33:31 AM 35.4317 -79.1353 58° Northeast 307 353 9,300 2,370 Climbing Washington Center
Mon 09:34:32 AM 35.4806 -79.0356 59° Northeast 322 371 11,100 1,686 Climbing Washington Center
Mon 09:35:32 AM 35.5683 -78.9550 37° Northeast 350 403 12,700 1,587 Climbing Washington Center
Mon 09:36:33 AM 35.6603 -78.8744 35° Northeast 369 425 14,300 1,785 Climbing Washington Center
Mon 09:37:00 AM 35.8279 -78.8144 33° Northeast  Level FlightAware Approximate
Mon 09:37:33 AM 35.7567 -78.7889 36° Northeast 407 468 16,300  Level Washington Center
Mon 09:38:31 AM 35.8528 -78.7031 36° Northeast 413 475 18,300 1,678 Climbing Washington Center
Mon 09:39:31 AM 35.9511 -78.6144 36° Northeast 424 488 19,600 1,326 Climbing Washington Center
Mon 09:41:00 AM 36.0853 -78.5060 38° Northeast  Level Estimated
Mon 09:41:32 AM 36.1539 -78.4269 38° Northeast 446 513 22,300  Level Washington Center
Mon 09:42:32 AM 36.2603 -78.3303 36° Northeast 457 526 23,000 347 Climbing Washington Center
Mon 09:43:33 AM 36.3711 -78.2308 36° Northeast 475 547 23,000  Level Washington Center
Mon 09:44:31 AM 36.4583 -78.1486 37° Northeast 481 554 23,000  Level Washington Center
Mon 09:45:32 AM 36.5775 -78.0361 37° Northeast 486 559 23,000  Level Washington Center
Mon 09:46:33 AM 36.6861 -77.9333 37° Northeast 486 559 23,000  Level Washington Center
Mon 09:47:31 AM 36.7967 -77.8303 37° Northeast 493 567 23,000  Level Washington Center
Mon 09:48:32 AM 36.9047 -77.7294 37° Northeast 488 562 23,000  Level Washington Center
Mon 09:49:33 AM 37.0086 -77.6336 36° Northeast 483 556 23,000  Level Washington Center
Mon 09:50:31 AM 37.1147 -77.5297 38° Northeast 478 550 23,000  Level Washington Center
Mon 09:52:33 AM 37.3242 -77.3339 37° Northeast 467 537 23,000  Level Washington Center
Mon 09:53:33 AM 37.4300 -77.2342 37° Northeast 467 537 23,000  Level Washington Center
Mon 09:54:31 AM 37.5333 -77.1344 37° Northeast 467 537 23,000  Level Washington Center
Mon 09:55:32 AM 37.6347 -77.0367 37° Northeast 467 537 23,000  Level Washington Center
Mon 09:56:33 AM 37.7361 -76.9389 37° Northeast 467 537 23,000 -605 Level Washington Center
Mon 09:57:31 AM 37.8350 -76.8433 37° Northeast 462 532 21,800 -1,220 Descending Washington Center
Mon 09:58:31 AM 37.9383 -76.7475 36° Northeast 462 532 20,600 -1,587 Descending Washington Center
Mon 09:59:32 AM 38.0392 -76.6489 38° Northeast 462 532 18,600 -1,785 Descending Washington Center
Mon 10:00:32 AM 38.1339 -76.5606 36° Northeast 444 511 17,000 -843 Descending Washington Center
Mon 10:01:33 AM 38.2219 -76.4772 37° Northeast 422 486 16,900 -403 Descending Washington Center
Mon 10:02:31 AM 38.3061 -76.3933 38° Northeast 393 452 16,200 -814 Descending Washington Center
Mon 10:03:31 AM 38.3961 -76.3122 35° Northeast 387 445 15,300 -885 Descending Washington Center
Mon 10:04:33 AM 38.4842 -76.2256 38° Northeast 393 452 14,400 -836 Descending Washington Center
Mon 10:05:33 AM 38.5703 -76.1386 38° Northeast 393 452 13,600 -472 Descending Washington Center
Mon 10:07:31 AM 38.7439 -75.9803 35° Northeast 388 447 13,000 -201 Descending Washington Center
Mon 10:08:32 AM 38.8336 -75.8928 37° Northeast 393 452 13,000  Level Washington Center
Mon 10:09:32 AM 38.9256 -75.8050 37° Northeast 398 458 13,000 -149 Level Washington Center
Mon 10:10:33 AM 39.0194 -75.7200 35° Northeast 405 466 12,700 -744 Descending Washington Center
Mon 10:11:33 AM 39.1258 -75.6744 18° North 394 453 11,500 -871 Descending Washington Center
Mon 10:13:39 AM 39.3167 -75.6333 North 326 375 10,000 -1,129 Descending Philadelphia TRACON
Mon 10:14:39 AM 39.4000 -75.6000 17° North 320 368 8,000 -1,579 Descending Philadelphia TRACON
Mon 10:15:33 AM 39.4833 -75.5833 North 311 358 7,000 -621 Descending Philadelphia TRACON
Mon 10:17:33 AM 39.6500 -75.5500 North 302 348 6,200 -645 Descending Philadelphia TRACON
Mon 10:18:39 AM 39.7333 -75.5333 North 295 339 5,000 -1,048 Descending Philadelphia TRACON
Mon 10:19:39 AM 39.8167 -75.5000 17° North 285 328 4,000 -800 Descending Philadelphia TRACON
Mon 10:20:39 AM 39.8333 -75.4167 75° East 201 231 3,400 -1,350 Descending Philadelphia TRACON
Mon 10:21:39 AM 39.8500 -75.3500 72° East 198 228 1,300 -1,579 Descending Philadelphia TRACON
Mon 10:22:33 AM 39.8500 -75.3000 90° East 136 157 400 -1,000 Descending Philadelphia TRACON

Login

Don't have an account? Register now (free) for customized features, flight alerts, and more!